Time;durP1;ratioP1;P1;durP2;ratioP2;P2;SDS_P1;SDS_P2;PMS_P1;PMS_P2;Temp;Humidity;BMP_temperature;BMP_pressure;BME280_temperature;BME280_humidity;BME280_pressure;Samples;Min_cycle;Max_cycle;Signal;HPM_P1;HPM_P2
2022/08/11 00:00:38;;;;;;;7.25;4.20;;;17.40;99.90;;;;;;5071307;28;20421;-69
2022/08/11 00:03:06;;;;;;;7.13;4.60;;;17.40;99.90;;;;;;5073820;28;20445;-69
2022/08/11 00:05:53;;;;;;;7.80;3.83;;;17.40;99.90;;;;;;5057683;28;20041;-69
2022/08/11 00:08:22;;;;;;;7.03;5.00;;;17.40;99.90;;;;;;5057233;28;20088;-69
2022/08/11 00:10:57;;;;;;;8.60;4.57;;;17.40;99.90;;;;;;5057424;28;20115;-69
2022/08/11 00:13:35;;;;;;;9.00;5.50;;;17.30;99.90;;;;;;5058216;28;20053;-69
2022/08/11 00:16:03;;;;;;;10.68;6.95;;;17.30;99.90;;;;;;5052937;28;20052;-69
2022/08/11 00:18:40;;;;;;;11.00;7.70;;;17.30;99.90;;;;;;5077293;28;20048;-69
2022/08/11 00:21:06;;;;;;;15.70;8.23;;;17.20;99.90;;;;;;5077700;28;20040;-70
2022/08/11 00:23:33;;;;;;;15.38;9.52;;;17.20;99.90;;;;;;5077824;28;20052;-70
2022/08/11 00:25:59;;;;;;;12.60;9.88;;;17.10;99.90;;;;;;5077945;28;20344;-70
2022/08/11 00:28:30;;;;;;;14.80;10.38;;;17.10;99.90;;;;;;5078043;28;20075;-69
2022/08/11 00:31:00;;;;;;;18.35;12.73;;;17.00;99.90;;;;;;5077678;28;20341;-69
2022/08/11 00:33:34;;;;;;;18.05;13.48;;;17.00;99.90;;;;;;5067273;28;20457;-69
2022/08/11 00:36:03;;;;;;;14.90;12.25;;;17.00;99.90;;;;;;5074107;28;20044;-69
2022/08/11 00:38:33;;;;;;;15.18;12.52;;;17.00;99.90;;;;;;5077515;28;20364;-69
2022/08/11 00:41:03;;;;;;;18.13;13.90;;;17.10;99.90;;;;;;5059957;28;20376;-69
2022/08/11 00:43:48;;;;;;;17.63;12.10;;;17.00;99.90;;;;;;5077250;28;20423;-69
2022/08/11 00:46:24;;;;;;;16.88;13.75;;;17.00;99.90;;;;;;5077313;28;20078;-69
2022/08/11 00:49:01;;;;;;;19.33;14.10;;;16.90;99.90;;;;;;5074981;28;20047;-69
2022/08/11 00:51:51;;;;;;;17.80;11.55;;;16.90;99.90;;;;;;5039840;28;20420;-69
2022/08/11 00:54:37;;;;;;;17.40;12.85;;;16.90;99.90;;;;;;5057031;28;20059;-69
2022/08/11 00:57:09;;;;;;;16.98;13.18;;;16.90;99.90;;;;;;5057250;28;20041;-69
2022/08/11 01:00:03;;;;;;;16.60;12.68;;;16.90;99.90;;;;;;5057456;28;20037;-69
2022/08/11 01:02:46;;;;;;;18.83;11.85;;;16.90;99.90;;;;;;5056616;28;20465;-69
2022/08/11 01:05:33;;;;;;;18.13;11.10;;;16.80;99.90;;;;;;5057941;28;20088;-69
2022/08/11 01:08:49;;;;;;;11.50;9.32;;;16.80;99.90;;;;;;5057311;28;20380;-69
2022/08/11 01:11:17;;;;;;;12.77;8.15;;;16.80;99.90;;;;;;5022726;28;20057;-69
2022/08/11 01:14:20;;;;;;;12.30;8.20;;;16.80;99.90;;;;;;5056904;28;20053;-69
2022/08/11 01:17:19;;;;;;;9.50;6.78;;;16.80;99.90;;;;;;5056954;28;20124;-69
2022/08/11 01:20:08;;;;;;;12.15;6.35;;;16.70;99.90;;;;;;5069730;28;20460;-70
2022/08/11 01:23:05;;;;;;;9.95;6.60;;;16.70;99.90;;;;;;5076122;28;20071;-70
2022/08/11 01:26:14;;;;;;;9.23;6.28;;;16.70;99.90;;;;;;5076609;28;20045;-69
2022/08/11 01:29:17;;;;;;;7.68;5.35;;;16.70;99.90;;;;;;5076827;28;20059;-69
2022/08/11 01:32:11;;;;;;;8.77;5.57;;;16.60;99.90;;;;;;5076429;28;20053;-69
2022/08/11 01:34:56;;;;;;;8.98;5.53;;;16.60;99.90;;;;;;5061635;28;20044;-69
2022/08/11 01:37:58;;;;;;;6.25;4.53;;;16.60;99.90;;;;;;5056235;28;20091;-69
2022/08/11 01:40:39;;;;;;;8.57;4.80;;;16.50;99.90;;;;;;5056066;28;20468;-69
2022/08/11 01:46:47;;;;;;;8.05;5.07;;;16.40;99.90;;;;;;5056149;28;20136;-70
2022/08/11 01:49:55;;;;;;;6.30;4.55;;;16.40;99.90;;;;;;5069003;28;20433;-70
2022/08/11 01:52:33;;;;;;;6.70;4.10;;;16.40;99.90;;;;;;5075969;28;20060;-69
2022/08/11 01:55:25;;;;;;;6.40;4.32;;;16.40;99.90;;;;;;5075966;28;20044;-69
2022/08/11 01:58:11;;;;;;;7.18;4.10;;;16.40;99.90;;;;;;5058142;28;20048;-70
2022/08/11 02:01:01;;;;;;;10.85;4.82;;;16.20;99.90;;;;;;5075112;28;20041;-69
2022/08/11 02:03:38;;;;;;;7.88;4.20;;;16.30;99.90;;;;;;5066465;28;20118;-69
2022/08/11 02:09:15;;;;;;;8.18;4.75;;;16.20;99.90;;;;;;5055923;28;20088;-69
2022/08/11 02:11:45;;;;;;;10.23;5.35;;;16.20;99.90;;;;;;5055927;28;20053;-69
2022/08/11 02:14:38;;;;;;;8.57;4.95;;;16.20;99.90;;;;;;5055522;28;20036;-69
2022/08/11 02:17:21;;;;;;;27.13;4.00;;;16.20;99.90;;;;;;5055447;28;20076;-69
2022/08/11 02:26:12;;;;;;;7.22;4.35;;;16.10;99.90;;;;;;5035412;28;20132;-69
2022/08/11 02:29:10;;;;;;;7.47;4.95;;;16.10;99.90;;;;;;5035647;28;20052;-70
2022/08/11 02:34:38;;;;;;;9.40;5.38;;;16.10;99.90;;;;;;5035217;28;20053;-69
2022/08/11 02:37:27;;;;;;;6.57;4.13;;;16.00;99.90;;;;;;5035468;28;20454;-69
2022/08/11 02:40:23;;;;;;;9.77;5.80;;;16.00;99.90;;;;;;5035003;28;20466;-69
2022/08/11 02:43:03;;;;;;;10.43;5.03;;;16.00;99.90;;;;;;5035085;28;20038;-69
2022/08/11 02:45:47;;;;;;;7.80;5.28;;;15.90;99.90;;;;;;5035371;28;20092;-69
2022/08/11 02:51:36;;;;;;;13.02;5.78;;;15.90;99.90;;;;;;5075341;28;20048;-69
2022/08/11 02:54:22;;;;;;;9.02;5.07;;;15.90;99.90;;;;;;5074826;28;20037;-69
2022/08/11 02:57:00;;;;;;;9.00;5.50;;;15.90;99.90;;;;;;5057710;28;20453;-70
2022/08/11 02:59:49;;;;;;;12.52;5.20;;;15.90;99.90;;;;;;5075108;28;20120;-69
2022/08/11 03:02:42;;;;;;;10.23;5.80;;;15.90;99.90;;;;;;5067262;28;20130;-69
2022/08/11 03:05:12;;;;;;;9.07;5.30;;;15.80;99.90;;;;;;5055218;28;20123;-69
2022/08/11 03:08:05;;;;;;;7.13;4.95;;;15.80;99.90;;;;;;5054931;28;20131;-69
2022/08/11 03:16:57;;;;;;;7.35;4.45;;;15.80;99.90;;;;;;5062123;28;20076;-69
2022/08/11 03:19:44;;;;;;;9.82;5.63;;;15.70;99.90;;;;;;5060809;28;20488;-70
2022/08/11 03:22:37;;;;;;;10.60;5.63;;;15.70;99.90;;;;;;5079053;28;20091;-69
2022/08/11 03:25:30;;;;;;;10.27;5.85;;;15.70;99.90;;;;;;5078996;28;20044;-69
2022/08/11 03:28:35;;;;;;;8.88;5.68;;;15.70;99.90;;;;;;5078724;28;20098;-69
2022/08/11 03:31:13;;;;;;;9.07;6.03;;;15.70;99.90;;;;;;5078936;28;20091;-69
2022/08/11 03:34:03;;;;;;;8.70;5.43;;;15.60;99.90;;;;;;5064245;28;20445;-69
2022/08/11 03:36:40;;;;;;;9.63;5.80;;;15.60;99.90;;;;;;5058579;28;20048;-69
2022/08/11 03:39:32;;;;;;;10.05;5.35;;;15.60;99.90;;;;;;5040963;28;20053;-69
2022/08/11 03:42:05;;;;;;;12.45;6.25;;;15.60;99.90;;;;;;5058720;28;20045;-69
2022/08/11 03:44:52;;;;;;;10.07;5.82;;;15.50;99.90;;;;;;5058155;28;20045;-69
2022/08/11 03:48:10;;;;;;;10.05;6.00;;;15.50;99.90;;;;;;5058528;28;20052;-70
2022/08/11 03:51:00;;;;;;;9.48;5.70;;;15.50;99.90;;;;;;5028247;28;20057;-70
2022/08/11 03:53:44;;;;;;;10.95;6.68;;;15.50;99.90;;;;;;5038379;28;20428;-70
2022/08/11 03:56:10;;;;;;;;;;;15.40;99.90;;;;;;5038648;28;20049;-70
2022/08/11 03:59:07;;;;;;;10.15;6.45;;;15.50;99.90;;;;;;5038031;28;20063;-70
2022/08/11 04:02:21;;;;;;;10.05;6.20;;;15.40;99.90;;;;;;5038039;28;20049;-70
2022/08/11 04:05:30;;;;;;;14.13;5.90;;;15.40;99.90;;;;;;5060368;28;20047;-69
2022/08/11 04:07:55;;;;;;;10.77;6.10;;;15.40;99.90;;;;;;5078403;28;20060;-70
2022/08/11 04:10:55;;;;;;;8.85;5.80;;;15.40;99.90;;;;;;5078047;28;20036;-70
2022/08/11 04:13:39;;;;;;;16.50;6.72;;;15.40;99.90;;;;;;5077691;28;20045;-70
2022/08/11 04:16:11;;;;;;;10.07;6.15;;;15.40;99.90;;;;;;5077796;28;20403;-70
2022/08/11 04:18:42;;;;;;;9.70;5.70;;;15.40;99.90;;;;;;5073841;28;20388;-70
2022/08/11 04:21:19;;;;;;;9.73;5.43;;;15.40;99.90;;;;;;5057815;28;20330;-70
2022/08/11 04:24:23;;;;;;;9.38;6.65;;;15.40;99.90;;;;;;5056641;28;20061;-70
2022/08/11 04:27:12;;;;;;;8.60;6.22;;;15.40;99.90;;;;;;5073912;28;20366;-70
2022/08/11 04:29:59;;;;;;;9.05;6.00;;;15.40;99.90;;;;;;5057487;28;20096;-70
2022/08/11 04:32:52;;;;;;;10.23;6.78;;;15.40;99.90;;;;;;5057279;28;20048;-70
2022/08/11 04:35:42;;;;;;;13.60;6.32;;;15.40;99.90;;;;;;5076773;28;20046;-70
2022/08/11 04:38:32;;;;;;;12.45;6.15;;;15.50;99.90;;;;;;5076859;28;20076;-70
2022/08/11 04:41:32;;;;;;;12.02;6.38;;;15.50;99.90;;;;;;5077866;28;20067;-70
2022/08/11 04:44:23;;;;;;;11.43;6.43;;;15.50;99.90;;;;;;5077262;28;20044;-70
2022/08/11 04:47:03;;;;;;;9.50;6.20;;;15.50;99.90;;;;;;5077518;28;20044;-70
2022/08/11 05:02:16;;;;;;;9.20;6.15;;;15.70;99.90;;;;;;5057646;28;20045;-70
2022/08/11 05:08:15;;;;;;;13.23;7.47;;;15.90;99.90;;;;;;5076522;28;20059;-70
2022/08/11 05:10:56;;;;;;;10.02;6.82;;;15.90;99.90;;;;;;5077351;28;20441;-70
2022/08/11 05:36:29;;;;;;;12.35;8.13;;;16.40;99.90;;;;;;5075150;28;20049;-70
2022/08/11 05:58:39;;;;;;;11.20;5.78;;;22.10;99.90;;;;;;5055977;28;20052;-70
2022/08/11 06:01:06;;;;;;;7.85;5.30;;;23.00;99.90;;;;;;5055921;28;20413;-70
2022/08/11 06:04:13;;;;;;;11.32;5.45;;;23.80;99.90;;;;;;5072469;28;20364;-71
2022/08/11 06:06:21;;;;;;;9.80;5.68;;;24.50;99.90;;;;;;5075284;28;20360;-71
2022/08/11 06:08:47;;;;;;;7.68;4.70;;;25.20;99.90;;;;;;5076196;28;20040;-70
2022/08/11 06:11:17;;;;;;;7.68;4.38;;;26.00;99.90;;;;;;5075427;28;20044;-70
2022/08/11 06:13:44;;;;;;;7.22;4.50;;;26.70;99.90;;;;;;5076331;28;20056;-71
2022/08/11 06:16:14;;;;;;;7.65;4.20;;;27.30;99.90;;;;;;5074546;28;20106;-71
2022/08/11 06:18:45;;;;;;;8.65;4.35;;;27.60;99.90;;;;;;5055672;28;20045;-71
2022/08/11 06:21:12;;;;;;;6.82;3.72;;;28.10;98.70;;;;;;5055648;28;20128;-71
2022/08/11 06:23:41;;;;;;;7.10;4.20;;;28.50;99.90;;;;;;5055844;28;20435;-71
2022/08/11 06:26:12;;;;;;;7.53;3.83;;;28.70;98.50;;;;;;5055264;28;20056;-71
2022/08/11 06:28:45;;;;;;;6.45;4.05;;;29.00;98.70;;;;;;5055525;28;20076;-70
2022/08/11 06:31:18;;;;;;;6.65;3.90;;;29.40;97.50;;;;;;5071438;28;20067;-71
2022/08/11 06:34:03;;;;;;;6.78;4.03;;;29.30;95.90;;;;;;5075088;28;20361;-71
2022/08/11 06:36:52;;;;;;;6.85;4.07;;;29.60;96.00;;;;;;5075668;28;20036;-71
2022/08/11 06:39:31;;;;;;;9.30;4.00;;;29.70;95.50;;;;;;5075286;28;20055;-71
2022/08/11 06:42:12;;;;;;;7.80;3.72;;;29.90;95.50;;;;;;5058171;28;20348;-71
2022/08/11 06:44:53;;;;;;;5.53;4.05;;;30.20;94.70;;;;;;5069437;28;20123;-71
2022/08/11 06:47:19;;;;;;;5.18;3.15;;;30.20;94.10;;;;;;5054840;28;20056;-71
2022/08/11 06:52:35;;;;;;;4.38;2.90;;;30.30;94.70;;;;;;5055077;28;20060;-71
2022/08/11 06:55:14;;;;;;;5.20;3.50;;;30.80;94.90;;;;;;5054998;28;20067;-71
2022/08/11 07:00:32;;;;;;;9.57;3.60;;;30.40;94.20;;;;;;5069034;28;20055;-71
2022/08/11 07:02:59;;;;;;;7.10;3.55;;;29.30;94.70;;;;;;5074880;28;20036;-70
2022/08/11 07:05:25;;;;;;;4.63;3.10;;;28.40;95.00;;;;;;5074857;28;20127;-70
2022/08/11 07:17:16;;;;;;;8.23;3.10;;;26.10;97.60;;;;;;5054563;28;20049;-71
2022/08/11 07:31:13;;;;;;;4.88;2.50;;;29.30;94.70;;;;;;5054639;28;20519;-71
2022/08/11 07:33:45;;;;;;;4.72;2.88;;;29.50;94.10;;;;;;5055392;28;20449;-71
2022/08/11 07:36:12;;;;;;;;;;;30.20;94.40;;;;;;5074188;28;20047;-71
2022/08/11 07:38:42;;;;;;;3.97;2.72;;;30.30;93.90;;;;;;5074835;28;20332;-71
2022/08/11 07:41:13;;;;;;;5.75;2.67;;;30.50;94.10;;;;;;5074928;28;20368;-71
2022/08/11 07:43:41;;;;;;;6.25;2.35;;;30.60;93.70;;;;;;5074542;28;20127;-70
2022/08/11 07:54:24;;;;;;;8.50;1.80;;;31.00;92.40;;;;;;5054203;28;20049;-71
2022/08/11 07:56:50;;;;;;;10.25;2.17;;;31.30;93.00;;;;;;5036748;28;20052;-70
2022/08/11 08:18:36;;;;;;;3.97;1.67;;;32.00;91.50;;;;;;5037906;28;20053;-71
2022/08/11 08:21:14;;;;;;;3.40;1.60;;;32.30;90.70;;;;;;5059948;28;20395;-70
2022/08/11 08:23:44;;;;;;;5.35;1.27;;;32.40;90.90;;;;;;5078058;28;20092;-70
2022/08/11 08:31:47;;;;;;;2.75;1.35;;;32.60;88.60;;;;;;5077562;28;20515;-71
2022/08/11 08:34:14;;;;;;;2.50;1.13;;;32.30;87.10;;;;;;5077403;28;20127;-71
2022/08/11 08:36:44;;;;;;;2.90;1.20;;;32.10;89.50;;;;;;5058635;28;20453;-72
2022/08/11 08:39:11;;;;;;;3.15;1.02;;;32.30;89.90;;;;;;5057556;28;20468;-70
2022/08/11 08:41:38;;;;;;;2.92;1.10;;;32.70;89.30;;;;;;5057556;28;20120;-70
2022/08/11 08:44:08;;;;;;;4.63;1.10;;;32.80;90.00;;;;;;5057872;28;20041;-71
2022/08/11 08:46:39;;;;;;;2.50;1.10;;;33.00;89.40;;;;;;5056850;28;20451;-71
2022/08/11 08:49:09;;;;;;;2.10;1.15;;;33.30;90.10;;;;;;5057660;28;20348;-71
2022/08/11 08:51:37;;;;;;;3.40;0.90;;;33.10;89.00;;;;;;5057197;28;20120;-71
2022/08/11 08:54:27;;;;;;;2.63;1.20;;;33.10;87.40;;;;;;5057267;28;20055;-70
2022/08/11 08:56:55;;;;;;;4.78;1.30;;;33.10;88.70;;;;;;5056988;28;20098;-71
2022/08/11 08:59:23;;;;;;;3.17;1.35;;;32.90;88.40;;;;;;5057301;28;20106;-71
2022/08/11 09:02:03;;;;;;;2.17;1.10;;;32.60;89.40;;;;;;5056807;28;20049;-70
2022/08/11 09:04:30;;;;;;;1.75;1.00;;;32.60;89.40;;;;;;5056975;28;20096;-71
2022/08/11 09:06:59;;;;;;;2.85;0.98;;;32.30;88.50;;;;;;5064926;28;20364;-71
2022/08/11 09:09:25;;;;;;;2.90;1.10;;;32.20;88.30;;;;;;5076747;28;20053;-70
2022/08/11 09:11:52;;;;;;;4.15;1.20;;;31.90;88.40;;;;;;5076750;28;20044;-71
2022/08/11 09:14:22;;;;;;;2.58;1.08;;;31.60;89.00;;;;;;5076686;28;20064;-71
2022/08/11 09:16:50;;;;;;;7.18;1.25;;;31.30;89.00;;;;;;5076675;28;20048;-71
2022/08/11 09:19:19;;;;;;;3.30;1.10;;;31.00;89.60;;;;;;5076636;28;20084;-71
2022/08/11 09:27:17;;;;;;;3.78;1.00;;;29.60;86.40;;;;;;5056198;28;20053;-70
2022/08/11 09:29:44;;;;;;;3.25;1.10;;;29.10;88.70;;;;;;5056691;28;20063;-71
2022/08/11 09:32:11;;;;;;;4.57;1.20;;;28.90;89.30;;;;;;5056502;28;20353;-70
2022/08/11 09:34:38;;;;;;;6.80;1.17;;;28.90;89.70;;;;;;5056642;28;20099;-70
2022/08/11 09:45:20;;;;;;;2.50;1.20;;;29.90;88.50;;;;;;5075776;28;20044;-71
2022/08/11 09:47:46;;;;;;;5.45;1.50;;;30.30;87.90;;;;;;5076194;28;20116;-70
2022/08/11 09:50:15;;;;;;;3.65;1.40;;;30.70;87.70;;;;;;5076349;28;20051;-71
2022/08/11 09:52:44;;;;;;;2.22;1.10;;;31.00;87.00;;;;;;5066511;28;20502;-70
2022/08/11 09:55:12;;;;;;;5.60;1.27;;;31.00;86.10;;;;;;5055606;28;20509;-70
2022/08/11 10:00:39;;;;;;;2.05;1.20;;;30.50;85.60;;;;;;5055990;28;20041;-70
2022/08/11 10:03:26;;;;;;;1.75;0.90;;;30.00;85.80;;;;;;5038266;28;20036;-70
2022/08/11 10:08:46;;;;;;;4.80;1.20;;;29.70;86.60;;;;;;5074772;28;20052;-71
2022/08/11 10:11:17;;;;;;;4.60;1.52;;;29.60;85.40;;;;;;5074102;28;20361;-70
2022/08/11 10:16:33;;;;;;;4.30;1.00;;;29.30;84.70;;;;;;5075452;28;20103;-70
2022/08/11 10:19:01;;;;;;;2.45;1.10;;;29.40;85.10;;;;;;5075536;28;20052;-71
2022/08/11 10:21:27;;;;;;;2.63;0.98;;;29.40;84.90;;;;;;5074865;28;20055;-71
2022/08/11 10:26:54;;;;;;;3.42;1.00;;;29.60;85.50;;;;;;5066368;28;20056;-71
2022/08/11 10:34:56;;;;;;;2.78;1.30;;;30.00;85.30;;;;;;5055339;28;20045;-70
2022/08/11 10:37:23;;;;;;;2.40;1.00;;;29.90;84.50;;;;;;5055569;28;20080;-71
2022/08/11 10:39:51;;;;;;;1.65;1.00;;;29.90;84.30;;;;;;5055237;28;20102;-70
2022/08/11 10:47:33;;;;;;;3.10;0.95;;;29.80;82.00;;;;;;5075131;28;20129;-70
2022/08/11 10:47:56;;;;;;;3.90;1.27;;;30.00;84.00;;;;;;5074659;28;20368;-70
2022/08/11 10:58:49;;;;;;;2.70;1.40;;;30.00;82.90;;;;;;5061903;28;20373;-70
2022/08/11 11:01:21;;;;;;;1.90;1.10;;;30.00;82.10;;;;;;5055107;28;20037;-71
2022/08/11 11:03:54;;;;;;;2.33;1.20;;;30.10;83.10;;;;;;5055116;28;20045;-71
2022/08/11 11:06:26;;;;;;;;;;;30.10;82.00;;;;;;5055618;28;20091;-70
2022/08/11 11:09:09;;;;;;;4.18;1.20;;;30.10;82.20;;;;;;5055042;28;20035;-71
2022/08/11 11:19:58;;;;;;;1.40;1.00;;;30.40;81.40;;;;;;5034997;28;20109;-70
2022/08/11 11:22:39;;;;;;;2.30;1.05;;;30.40;79.40;;;;;;5035483;28;20060;-70
2022/08/11 11:25:13;;;;;;;3.80;1.00;;;30.40;81.50;;;;;;5034825;28;20449;-70
2022/08/11 11:28:09;;;;;;;2.53;1.02;;;30.60;82.30;;;;;;5052396;28;20451;-70
2022/08/11 11:30:50;;;;;;;3.65;1.00;;;30.70;82.10;;;;;;5074691;28;20052;-71
2022/08/11 11:33:28;;;;;;;2.22;1.23;;;30.70;80.00;;;;;;5075830;28;20076;-71
2022/08/11 11:36:30;;;;;;;2.85;1.10;;;30.70;80.50;;;;;;5078936;28;20074;-70
2022/08/11 11:38:57;;;;;;;4.80;1.05;;;30.60;78.20;;;;;;5050828;28;20407;-71
2022/08/11 11:41:24;;;;;;;3.88;0.65;;;30.20;78.40;;;;;;5077886;28;20076;-70
2022/08/11 11:43:55;;;;;;;1.83;1.02;;;30.20;81.10;;;;;;5058407;28;20059;-70
2022/08/11 11:46:25;;;;;;;2.65;1.05;;;30.40;80.90;;;;;;5058394;28;20069;-71
2022/08/11 11:48:52;;;;;;;2.90;0.90;;;30.60;81.10;;;;;;5058435;28;20120;-70
2022/08/11 11:51:19;;;;;;;1.95;0.70;;;30.70;81.50;;;;;;5058322;28;20041;-70
2022/08/11 11:53:46;;;;;;;1.70;0.90;;;31.00;80.90;;;;;;5058479;28;20049;-71
2022/08/11 11:56:14;;;;;;;1.80;1.00;;;31.00;79.90;;;;;;5058828;28;20411;-71
2022/08/11 12:01:25;;;;;;;3.30;1.20;;;31.40;81.60;;;;;;5076958;28;20143;-71
2022/08/11 12:03:52;;;;;;;2.67;0.82;;;31.40;79.00;;;;;;5073666;28;20362;-71
2022/08/11 12:06:21;;;;;;;2.40;0.80;;;31.40;79.30;;;;;;5057926;28;20049;-71
2022/08/11 12:08:49;;;;;;;2.03;0.88;;;31.20;78.10;;;;;;5057970;28;20059;-71
2022/08/11 12:14:04;;;;;;;4.55;1.23;;;31.00;77.40;;;;;;5058306;28;20459;-71
2022/08/11 12:16:30;;;;;;;1.50;0.85;;;30.90;79.00;;;;;;5061335;28;20108;-71
2022/08/11 12:19:00;;;;;;;1.13;0.80;;;30.80;78.50;;;;;;5078072;28;20066;-70
2022/08/11 12:21:27;;;;;;;3.33;1.23;;;30.80;79.00;;;;;;5077689;28;20404;-71
2022/08/11 12:29:25;;;;;;;1.85;0.90;;;31.10;78.70;;;;;;5077905;28;20053;-71
2022/08/11 12:31:53;;;;;;;3.05;0.88;;;31.20;78.00;;;;;;5068584;28;20044;-70
2022/08/11 12:34:19;;;;;;;1.42;0.70;;;31.20;77.10;;;;;;5057944;28;20076;-71
2022/08/11 12:36:52;;;;;;;2.08;1.02;;;31.20;77.80;;;;;;5057454;28;20053;-70
2022/08/11 12:53:21;;;;;;;1.05;0.80;;;31.30;77.70;;;;;;5077398;28;20130;-70
2022/08/11 12:58:33;;;;;;;3.65;1.13;;;31.40;78.00;;;;;;5077296;28;20143;-70
2022/08/11 13:06:28;;;;;;;1.42;0.77;;;31.10;75.70;;;;;;5057075;28;20064;-71
2022/08/11 13:08:56;;;;;;;1.67;0.82;;;31.10;76.10;;;;;;5072547;28;20388;-71
2022/08/11 13:14:08;;;;;;;2.08;0.80;;;31.10;76.10;;;;;;5057308;28;20049;-71
2022/08/11 13:17:20;;;;;;;3.58;0.90;;;31.20;76.70;;;;;;5068196;28;20087;-70
2022/08/11 13:19:22;;;;;;;2.25;1.27;;;31.20;76.00;;;;;;5076353;28;20056;-71
2022/08/11 13:21:52;;;;;;;1.73;0.90;;;31.20;75.70;;;;;;5076382;28;20052;-71
2022/08/11 13:24:20;;;;;;;6.63;1.15;;;31.20;73.90;;;;;;5076887;28;20143;-71
2022/08/11 13:26:47;;;;;;;1.95;0.82;;;31.20;75.60;;;;;;5076471;28;20125;-71
2022/08/11 13:29:13;;;;;;;1.98;1.00;;;31.20;76.40;;;;;;5076643;28;20052;-71
2022/08/11 13:31:41;;;;;;;2.15;0.93;;;31.40;78.20;;;;;;5075910;28;20460;-71
2022/08/11 13:34:08;;;;;;;3.45;0.90;;;31.40;77.00;;;;;;5057046;28;20167;-71
2022/08/11 13:36:34;;;;;;;2.03;0.85;;;31.20;76.20;;;;;;5072123;28;20077;-71
2022/08/11 13:39:02;;;;;;;1.98;1.00;;;31.20;75.80;;;;;;5056109;28;20041;-70
2022/08/11 13:41:38;;;;;;;3.63;1.10;;;31.20;76.30;;;;;;5057664;28;20122;-71
2022/08/11 13:44:08;;;;;;;4.03;0.95;;;31.20;76.80;;;;;;5056398;28;20041;-71
2022/08/11 13:46:35;;;;;;;2.17;0.80;;;31.30;76.90;;;;;;5056152;28;20049;-71
2022/08/11 13:49:01;;;;;;;2.20;1.00;;;31.30;76.60;;;;;;5056887;28;20037;-71
2022/08/11 13:51:32;;;;;;;5.28;0.90;;;31.50;76.60;;;;;;5056153;28;20060;-71
2022/08/11 13:54:20;;;;;;;2.83;1.00;;;31.50;76.60;;;;;;5055912;28;20033;-71
2022/08/11 13:56:48;;;;;;;5.15;0.93;;;31.30;75.60;;;;;;5054930;28;20128;-71
2022/08/11 13:59:22;;;;;;;3.28;0.82;;;31.20;75.80;;;;;;5056377;28;20045;-71
2022/08/11 14:01:51;;;;;;;2.00;0.88;;;31.20;75.80;;;;;;5064055;28;20075;-71
2022/08/11 14:04:25;;;;;;;1.90;0.90;;;31.10;76.50;;;;;;5075723;28;20056;-71
2022/08/11 14:06:53;;;;;;;3.88;0.82;;;31.10;77.50;;;;;;5076335;28;20452;-70
2022/08/11 14:09:31;;;;;;;2.30;1.00;;;31.20;77.40;;;;;;5075693;28;20175;-72
2022/08/11 14:14:55;;;;;;;3.63;1.13;;;30.90;76.40;;;;;;5060613;28;20049;-71
2022/08/11 14:17:21;;;;;;;3.63;0.90;;;30.90;75.60;;;;;;5060173;28;20049;-71
2022/08/11 14:19:50;;;;;;;1.50;0.80;;;30.90;76.00;;;;;;5055756;28;20472;-70
2022/08/11 14:22:17;;;;;;;1.48;0.90;;;31.00;76.00;;;;;;5054689;28;20044;-71
2022/08/11 14:24:50;;;;;;;3.10;0.93;;;31.10;77.90;;;;;;5055312;28;20072;-71
2022/08/11 14:27:17;;;;;;;2.78;0.80;;;31.00;77.20;;;;;;5055079;28;20110;-71
2022/08/11 14:29:45;;;;;;;5.63;1.25;;;31.00;76.80;;;;;;5055573;28;20048;-71
2022/08/11 14:32:13;;;;;;;1.63;0.77;;;31.20;76.10;;;;;;5055963;28;20056;-71
2022/08/11 14:34:41;;;;;;;2.95;1.00;;;31.30;76.10;;;;;;5070449;28;20116;-71
2022/08/11 14:37:10;;;;;;;2.00;0.90;;;31.30;76.50;;;;;;5055526;28;20049;-71
2022/08/11 14:39:44;;;;;;;2.85;0.80;;;31.20;76.20;;;;;;5055254;28;20048;-71
2022/08/11 14:47:03;;;;;;;6.32;1.17;;;31.50;77.00;;;;;;5055307;28;20424;-71
2022/08/11 14:48:03;;;;;;;2.65;1.15;;;31.50;77.50;;;;;;5054738;28;20045;-71
2022/08/11 14:50:31;;;;;;;3.78;0.93;;;31.30;76.60;;;;;;5049143;28;20059;-71
2022/08/11 14:53:03;;;;;;;9.93;1.00;;;31.20;77.00;;;;;;5075324;28;20041;-70
2022/08/11 14:58:20;;;;;;;3.03;0.90;;;30.90;77.50;;;;;;5074857;28;20388;-71
2022/08/11 15:00:50;;;;;;;2.58;1.00;;;30.80;78.10;;;;;;5075021;28;20032;-71
2022/08/11 15:03:16;;;;;;;1.98;1.00;;;30.80;77.90;;;;;;5074817;28;20051;-71
2022/08/11 15:05:48;;;;;;;2.13;0.93;;;30.90;78.50;;;;;;5059003;28;20049;-71
2022/08/11 15:08:15;;;;;;;2.13;1.02;;;30.90;78.00;;;;;;5058647;28;20076;-71
2022/08/11 15:10:41;;;;;;;2.05;0.90;;;30.70;77.40;;;;;;5061471;28;20036;-71
2022/08/11 15:13:07;;;;;;;4.53;0.80;;;30.60;78.30;;;;;;5062044;28;20041;-71
2022/08/11 15:18:22;;;;;;;1.48;0.82;;;30.40;78.00;;;;;;5061643;28;20088;-71
2022/08/11 15:37:43;;;;;;;2.97;1.00;;;30.00;80.20;;;;;;5061198;28;20041;-71
2022/08/11 15:46:44;;;;;;;3.40;0.90;;;29.70;81.80;;;;;;5061083;28;20100;-71
2022/08/11 15:49:29;;;;;;;3.40;0.93;;;29.80;82.10;;;;;;5070378;28;20055;-71
2022/08/11 15:52:12;;;;;;;1.50;0.80;;;29.80;81.60;;;;;;5081283;28;20047;-71
2022/08/11 15:54:43;;;;;;;5.68;1.10;;;29.80;80.60;;;;;;5081039;28;20040;-71
2022/08/11 16:04:09;;;;;;;5.70;1.00;;;29.70;81.20;;;;;;5047024;28;20052;-71
2022/08/11 16:05:21;;;;;;;3.00;1.40;;;29.70;82.40;;;;;;5040915;28;20056;-71
2022/08/11 16:07:51;;;;;;;1.67;1.02;;;29.60;82.60;;;;;;5041022;28;20049;-71
2022/08/11 16:10:21;;;;;;;2.90;1.13;;;29.70;83.40;;;;;;5041144;28;20053;-70
2022/08/11 16:18:39;;;;;;;2.88;1.02;;;29.60;83.40;;;;;;5051281;28;19924;-71
2022/08/11 16:21:10;;;;;;;2.05;1.10;;;29.60;82.60;;;;;;5057138;28;20106;-71
2022/08/11 16:23:39;;;;;;;1.33;0.90;;;29.60;82.40;;;;;;5057206;28;20056;-71
2022/08/11 16:26:07;;;;;;;1.60;0.90;;;29.50;82.50;;;;;;5057607;28;20087;-70
2022/08/11 16:28:34;;;;;;;3.35;1.25;;;29.20;83.30;;;;;;5058021;28;20128;-70
2022/08/11 16:31:01;;;;;;;2.65;1.45;;;29.30;83.80;;;;;;5040187;28;20445;-70
2022/08/11 16:33:27;;;;;;;2.25;0.82;;;29.40;84.10;;;;;;5057587;28;20163;-71
2022/08/11 16:38:40;;;;;;;2.67;1.05;;;29.20;84.60;;;;;;5077329;28;20056;-70
2022/08/11 16:41:07;;;;;;;5.78;1.15;;;29.10;84.80;;;;;;5077422;28;20123;-70
2022/08/11 16:49:15;;;;;;;2.83;1.27;;;28.70;85.50;;;;;;5077573;28;20052;-71
2022/08/11 16:51:40;;;;;;;2.88;1.55;;;28.60;85.90;;;;;;5064213;28;20406;-71
2022/08/11 16:54:06;;;;;;;3.53;0.93;;;28.60;86.20;;;;;;5057098;28;20084;-70
2022/08/11 16:56:47;;;;;;;2.22;1.10;;;28.60;86.10;;;;;;5049056;28;20052;-71
2022/08/11 16:59:29;;;;;;;2.42;1.10;;;28.60;86.30;;;;;;5057513;28;20342;-71
2022/08/11 17:13:07;;;;;;;4.38;1.05;;;28.50;86.50;;;;;;5056980;28;20098;-71
2022/08/11 17:13:42;;;;;;;5.20;1.35;;;28.30;87.60;;;;;;5077457;28;20396;-71
2022/08/11 17:16:11;;;;;;;4.85;1.50;;;28.20;87.70;;;;;;5077004;28;20106;-71
2022/08/11 17:18:57;;;;;;;5.32;1.00;;;28.20;87.70;;;;;;5077023;28;20056;-70
2022/08/11 17:21:32;;;;;;;2.80;1.40;;;28.10;88.30;;;;;;5052843;28;20041;-70
2022/08/11 17:24:09;;;;;;;5.53;2.45;;;28.10;88.80;;;;;;5056811;28;20095;-71
2022/08/11 17:26:55;;;;;;;4.82;1.40;;;28.00;89.40;;;;;;5056558;28;20055;-71
2022/08/11 17:29:39;;;;;;;4.38;1.50;;;28.00;89.40;;;;;;5021562;28;20060;-70
2022/08/11 17:37:42;;;;;;;13.35;2.38;;;27.70;90.20;;;;;;5075035;28;20079;-71
2022/08/11 17:40:12;;;;;;;28.65;22.55;;;27.50;90.50;;;;;;5076573;28;20036;-70
2022/08/11 17:48:25;;;;;;;6.03;1.58;;;27.20;90.70;;;;;;5076427;28;20053;-70
2022/08/11 17:50:54;;;;;;;26.50;23.90;;;27.20;90.70;;;;;;5069848;28;20041;-70
2022/08/11 18:01:48;;;;;;;6.43;3.17;;;26.80;91.40;;;;;;5055937;28;20044;-71
2022/08/11 18:04:16;;;;;;;6.95;1.75;;;26.70;91.40;;;;;;5056231;28;20056;-70
2022/08/11 18:06:43;;;;;;;2.40;1.20;;;26.70;92.40;;;;;;5070705;28;20371;-70
